sensor_id;sensor_type;location;lat;lon;timestamp;P1;durP1;ratioP1;P2;durP2;ratioP2
11955;SDS011;6038;52.276;10.530;2023-06-22T00:02:16;1179.93;;;999.90;;
11955;SDS011;6038;52.276;10.530;2023-06-22T00:04:42;1182.00;;;999.90;;
11955;SDS011;6038;52.276;10.530;2023-06-22T00:07:08;1172.95;;;999.90;;
11955;SDS011;6038;52.276;10.530;2023-06-22T00:09:34;1167.97;;;999.90;;
11955;SDS011;6038;52.276;10.530;2023-06-22T00:12:01;1176.30;;;999.90;;
11955;SDS011;6038;52.276;10.530;2023-06-22T00:14:27;1169.17;;;999.90;;
11955;SDS011;6038;52.276;10.530;2023-06-22T00:16:53;1175.67;;;999.90;;
11955;SDS011;6038;52.276;10.530;2023-06-22T00:19:22;1165.70;;;999.90;;
11955;SDS011;6038;52.276;10.530;2023-06-22T00:21:48;1164.37;;;999.90;;
11955;SDS011;6038;52.276;10.530;2023-06-22T00:24:21;1166.20;;;999.90;;
11955;SDS011;6038;52.276;10.530;2023-06-22T00:26:47;1169.47;;;999.90;;
11955;SDS011;6038;52.276;10.530;2023-06-22T00:29:14;1165.37;;;999.90;;
11955;SDS011;6038;52.276;10.530;2023-06-22T00:31:40;1153.53;;;999.90;;
11955;SDS011;6038;52.276;10.530;2023-06-22T00:34:06;1160.77;;;999.90;;
11955;SDS011;6038;52.276;10.530;2023-06-22T00:36:33;1154.17;;;999.90;;
11955;SDS011;6038;52.276;10.530;2023-06-22T00:38:59;1150.03;;;999.90;;
11955;SDS011;6038;52.276;10.530;2023-06-22T00:41:25;1145.27;;;999.90;;
11955;SDS011;6038;52.276;10.530;2023-06-22T00:43:53;1152.20;;;999.90;;
11955;SDS011;6038;52.276;10.530;2023-06-22T00:46:20;1145.23;;;999.90;;
11955;SDS011;6038;52.276;10.530;2023-06-22T00:48:47;1148.70;;;999.90;;
11955;SDS011;6038;52.276;10.530;2023-06-22T00:51:13;1140.50;;;999.90;;
11955;SDS011;6038;52.276;10.530;2023-06-22T00:53:39;1151.47;;;999.90;;
11955;SDS011;6038;52.276;10.530;2023-06-22T00:56:06;1138.23;;;999.90;;
11955;SDS011;6038;52.276;10.530;2023-06-22T00:58:34;1144.87;;;999.90;;
11955;SDS011;6038;52.276;10.530;2023-06-22T01:01:00;1140.57;;;999.90;;
11955;SDS011;6038;52.276;10.530;2023-06-22T01:03:27;1143.90;;;999.90;;
11955;SDS011;6038;52.276;10.530;2023-06-22T01:05:54;1138.27;;;999.90;;
11955;SDS011;6038;52.276;10.530;2023-06-22T01:08:25;1133.13;;;999.90;;
11955;SDS011;6038;52.276;10.530;2023-06-22T01:10:57;1142.83;;;999.90;;
11955;SDS011;6038;52.276;10.530;2023-06-22T01:16:29;1134.40;;;999.90;;
11955;SDS011;6038;52.276;10.530;2023-06-22T01:18:55;1117.63;;;999.90;;
11955;SDS011;6038;52.276;10.530;2023-06-22T01:21:23;1122.97;;;999.90;;
11955;SDS011;6038;52.276;10.530;2023-06-22T01:26:37;1116.90;;;999.90;;
11955;SDS011;6038;52.276;10.530;2023-06-22T01:29:04;1128.03;;;999.90;;
11955;SDS011;6038;52.276;10.530;2023-06-22T01:31:32;1113.47;;;999.90;;
11955;SDS011;6038;52.276;10.530;2023-06-22T01:34:01;1125.60;;;999.90;;
11955;SDS011;6038;52.276;10.530;2023-06-22T01:36:28;1121.40;;;999.90;;
11955;SDS011;6038;52.276;10.530;2023-06-22T01:38:55;1112.17;;;999.90;;
11955;SDS011;6038;52.276;10.530;2023-06-22T01:41:24;1120.87;;;999.90;;
11955;SDS011;6038;52.276;10.530;2023-06-22T01:43:50;1107.80;;;999.90;;
11955;SDS011;6038;52.276;10.530;2023-06-22T01:46:17;1110.17;;;999.90;;
11955;SDS011;6038;52.276;10.530;2023-06-22T01:48:47;1111.13;;;999.90;;
11955;SDS011;6038;52.276;10.530;2023-06-22T01:51:13;1100.70;;;999.90;;
11955;SDS011;6038;52.276;10.530;2023-06-22T01:53:39;1100.77;;;999.80;;
11955;SDS011;6038;52.276;10.530;2023-06-22T01:56:06;1108.57;;;999.90;;
11955;SDS011;6038;52.276;10.530;2023-06-22T01:58:32;1113.77;;;999.90;;
11955;SDS011;6038;52.276;10.530;2023-06-22T02:01:09;1111.20;;;999.90;;
11955;SDS011;6038;52.276;10.530;2023-06-22T02:03:37;1099.23;;;999.73;;
11955;SDS011;6038;52.276;10.530;2023-06-22T02:06:05;1108.57;;;999.90;;
11955;SDS011;6038;52.276;10.530;2023-06-22T02:08:35;1104.53;;;999.90;;
11955;SDS011;6038;52.276;10.530;2023-06-22T02:11:02;1089.47;;;995.23;;
11955;SDS011;6038;52.276;10.530;2023-06-22T02:13:29;1107.43;;;999.90;;
11955;SDS011;6038;52.276;10.530;2023-06-22T02:15:55;1096.10;;;999.43;;
11955;SDS011;6038;52.276;10.530;2023-06-22T02:18:22;1092.03;;;997.20;;
11955;SDS011;6038;52.276;10.530;2023-06-22T02:20:48;1089.80;;;996.17;;
11955;SDS011;6038;52.276;10.530;2023-06-22T02:23:13;1104.60;;;999.90;;
11955;SDS011;6038;52.276;10.530;2023-06-22T02:25:39;1096.80;;;999.33;;
11955;SDS011;6038;52.276;10.530;2023-06-22T02:28:09;1100.57;;;999.90;;
11955;SDS011;6038;52.276;10.530;2023-06-22T02:30:35;1098.20;;;999.90;;
11955;SDS011;6038;52.276;10.530;2023-06-22T02:33:01;1094.37;;;998.63;;
11955;SDS011;6038;52.276;10.530;2023-06-22T02:35:27;1096.43;;;999.67;;
11955;SDS011;6038;52.276;10.530;2023-06-22T02:37:59;1093.70;;;998.87;;
11955;SDS011;6038;52.276;10.530;2023-06-22T02:40:26;1074.37;;;982.00;;
11955;SDS011;6038;52.276;10.530;2023-06-22T02:42:52;1085.83;;;993.07;;
11955;SDS011;6038;52.276;10.530;2023-06-22T02:45:18;1077.20;;;984.73;;
11955;SDS011;6038;52.276;10.530;2023-06-22T02:47:44;1089.60;;;996.37;;
11955;SDS011;6038;52.276;10.530;2023-06-22T02:50:10;1076.47;;;984.20;;
11955;SDS011;6038;52.276;10.530;2023-06-22T02:52:36;1071.10;;;979.03;;
11955;SDS011;6038;52.276;10.530;2023-06-22T02:55:04;1084.17;;;992.80;;
11955;SDS011;6038;52.276;10.530;2023-06-22T02:57:30;1090.97;;;997.93;;
11955;SDS011;6038;52.276;10.530;2023-06-22T02:59:56;1079.63;;;988.80;;
11955;SDS011;6038;52.276;10.530;2023-06-22T03:02:22;1080.13;;;988.80;;
11955;SDS011;6038;52.276;10.530;2023-06-22T03:04:48;1085.07;;;993.73;;
11955;SDS011;6038;52.276;10.530;2023-06-22T03:07:14;1089.07;;;996.47;;
11955;SDS011;6038;52.276;10.530;2023-06-22T03:09:42;1087.70;;;995.90;;
11955;SDS011;6038;52.276;10.530;2023-06-22T03:12:08;1070.37;;;978.37;;
11955;SDS011;6038;52.276;10.530;2023-06-22T03:14:34;1084.67;;;993.60;;
11955;SDS011;6038;52.276;10.530;2023-06-22T03:17:00;1088.60;;;996.27;;
11955;SDS011;6038;52.276;10.530;2023-06-22T03:19:27;1074.17;;;981.77;;
11955;SDS011;6038;52.276;10.530;2023-06-22T03:21:54;1082.27;;;991.03;;
11955;SDS011;6038;52.276;10.530;2023-06-22T03:24:20;1082.17;;;990.90;;
11955;SDS011;6038;52.276;10.530;2023-06-22T03:26:46;1070.10;;;978.00;;
11955;SDS011;6038;52.276;10.530;2023-06-22T03:29:13;1071.67;;;979.67;;
11955;SDS011;6038;52.276;10.530;2023-06-22T03:31:41;1080.23;;;988.97;;
11955;SDS011;6038;52.276;10.530;2023-06-22T03:34:07;1074.53;;;982.33;;
11955;SDS011;6038;52.276;10.530;2023-06-22T03:36:33;1097.50;;;999.90;;
11955;SDS011;6038;52.276;10.530;2023-06-22T03:38:59;1082.40;;;989.80;;
11955;SDS011;6038;52.276;10.530;2023-06-22T03:41:25;1080.07;;;987.47;;
11955;SDS011;6038;52.276;10.530;2023-06-22T03:43:51;1100.90;;;999.90;;
11955;SDS011;6038;52.276;10.530;2023-06-22T03:46:17;1090.27;;;996.57;;
11955;SDS011;6038;52.276;10.530;2023-06-22T03:48:44;1102.73;;;999.90;;
11955;SDS011;6038;52.276;10.530;2023-06-22T03:51:10;1098.43;;;999.90;;
11955;SDS011;6038;52.276;10.530;2023-06-22T03:53:36;1093.90;;;998.37;;
11955;SDS011;6038;52.276;10.530;2023-06-22T03:56:02;1102.23;;;999.90;;
11955;SDS011;6038;52.276;10.530;2023-06-22T03:58:29;1107.07;;;999.90;;
11955;SDS011;6038;52.276;10.530;2023-06-22T04:00:57;1098.63;;;999.73;;
11955;SDS011;6038;52.276;10.530;2023-06-22T04:03:25;1105.43;;;999.90;;
11955;SDS011;6038;52.276;10.530;2023-06-22T04:05:51;1090.67;;;996.47;;
11955;SDS011;6038;52.276;10.530;2023-06-22T04:08:17;1102.57;;;999.90;;
11955;SDS011;6038;52.276;10.530;2023-06-22T04:10:43;1112.43;;;999.90;;
11955;SDS011;6038;52.276;10.530;2023-06-22T04:13:10;1109.67;;;999.90;;
11955;SDS011;6038;52.276;10.530;2023-06-22T04:15:36;1112.43;;;999.90;;
11955;SDS011;6038;52.276;10.530;2023-06-22T04:18:02;1104.53;;;999.90;;
11955;SDS011;6038;52.276;10.530;2023-06-22T04:20:28;1101.83;;;999.90;;
11955;SDS011;6038;52.276;10.530;2023-06-22T04:22:54;1121.80;;;999.90;;
11955;SDS011;6038;52.276;10.530;2023-06-22T04:25:20;1113.43;;;999.90;;
11955;SDS011;6038;52.276;10.530;2023-06-22T04:27:46;1108.47;;;999.90;;
11955;SDS011;6038;52.276;10.530;2023-06-22T04:30:13;1110.80;;;999.90;;
11955;SDS011;6038;52.276;10.530;2023-06-22T04:32:41;1118.63;;;999.90;;
11955;SDS011;6038;52.276;10.530;2023-06-22T04:35:08;1115.90;;;999.90;;
11955;SDS011;6038;52.276;10.530;2023-06-22T04:37:34;1122.90;;;999.90;;
11955;SDS011;6038;52.276;10.530;2023-06-22T04:40:00;1135.03;;;999.90;;
11955;SDS011;6038;52.276;10.530;2023-06-22T04:42:28;1131.50;;;999.90;;
11955;SDS011;6038;52.276;10.530;2023-06-22T04:44:55;1132.73;;;999.90;;
11955;SDS011;6038;52.276;10.530;2023-06-22T04:47:21;1118.10;;;999.90;;
11955;SDS011;6038;52.276;10.530;2023-06-22T04:49:47;1120.57;;;999.90;;
11955;SDS011;6038;52.276;10.530;2023-06-22T04:52:13;1127.00;;;999.90;;
11955;SDS011;6038;52.276;10.530;2023-06-22T04:54:42;1134.13;;;999.90;;
11955;SDS011;6038;52.276;10.530;2023-06-22T04:57:13;1129.03;;;999.90;;
11955;SDS011;6038;52.276;10.530;2023-06-22T04:59:39;1133.70;;;999.90;;
11955;SDS011;6038;52.276;10.530;2023-06-22T05:02:06;1135.27;;;999.90;;
11955;SDS011;6038;52.276;10.530;2023-06-22T05:04:32;1128.03;;;999.90;;
11955;SDS011;6038;52.276;10.530;2023-06-22T05:07:00;1142.93;;;999.90;;
11955;SDS011;6038;52.276;10.530;2023-06-22T05:09:27;1131.03;;;999.90;;
11955;SDS011;6038;52.276;10.530;2023-06-22T05:11:52;1136.00;;;999.90;;
11955;SDS011;6038;52.276;10.530;2023-06-22T05:14:19;1137.03;;;999.90;;
11955;SDS011;6038;52.276;10.530;2023-06-22T05:16:45;1141.00;;;999.90;;
11955;SDS011;6038;52.276;10.530;2023-06-22T05:19:11;1136.90;;;999.90;;
11955;SDS011;6038;52.276;10.530;2023-06-22T05:21:37;1141.60;;;999.90;;
11955;SDS011;6038;52.276;10.530;2023-06-22T05:24:04;1145.40;;;999.90;;
11955;SDS011;6038;52.276;10.530;2023-06-22T05:26:30;1145.57;;;999.90;;
11955;SDS011;6038;52.276;10.530;2023-06-22T05:28:57;1140.75;;;999.90;;
11955;SDS011;6038;52.276;10.530;2023-06-22T05:31:23;1143.82;;;999.90;;
11955;SDS011;6038;52.276;10.530;2023-06-22T05:33:50;1149.22;;;999.90;;
11955;SDS011;6038;52.276;10.530;2023-06-22T05:36:17;1162.07;;;999.90;;
11955;SDS011;6038;52.276;10.530;2023-06-22T05:38:45;1166.67;;;999.90;;
11955;SDS011;6038;52.276;10.530;2023-06-22T05:41:11;1160.37;;;999.90;;
11955;SDS011;6038;52.276;10.530;2023-06-22T05:43:37;1161.73;;;999.90;;
11955;SDS011;6038;52.276;10.530;2023-06-22T05:46:03;1160.90;;;999.90;;
11955;SDS011;6038;52.276;10.530;2023-06-22T05:48:30;1161.63;;;999.90;;
11955;SDS011;6038;52.276;10.530;2023-06-22T05:50:56;1165.53;;;999.90;;
11955;SDS011;6038;52.276;10.530;2023-06-22T05:53:22;1168.60;;;999.90;;
11955;SDS011;6038;52.276;10.530;2023-06-22T05:55:48;1175.97;;;999.90;;
11955;SDS011;6038;52.276;10.530;2023-06-22T05:58:14;1168.68;;;999.90;;
11955;SDS011;6038;52.276;10.530;2023-06-22T06:00:41;1177.85;;;999.90;;
11955;SDS011;6038;52.276;10.530;2023-06-22T06:03:08;1171.32;;;999.90;;
11955;SDS011;6038;52.276;10.530;2023-06-22T06:05:34;1182.18;;;999.90;;
11955;SDS011;6038;52.276;10.530;2023-06-22T06:08:00;1179.63;;;999.90;;
11955;SDS011;6038;52.276;10.530;2023-06-22T06:10:26;1186.50;;;999.90;;
11955;SDS011;6038;52.276;10.530;2023-06-22T06:12:54;1178.15;;;999.90;;
11955;SDS011;6038;52.276;10.530;2023-06-22T06:15:20;1185.57;;;999.90;;
11955;SDS011;6038;52.276;10.530;2023-06-22T06:17:50;1184.25;;;999.90;;
11955;SDS011;6038;52.276;10.530;2023-06-22T06:20:23;1191.78;;;999.90;;
11955;SDS011;6038;52.276;10.530;2023-06-22T06:22:50;1191.10;;;999.90;;
11955;SDS011;6038;52.276;10.530;2023-06-22T06:25:16;1192.60;;;999.90;;
11955;SDS011;6038;52.276;10.530;2023-06-22T06:27:43;1194.50;;;999.90;;
11955;SDS011;6038;52.276;10.530;2023-06-22T06:30:10;1194.75;;;999.90;;
11955;SDS011;6038;52.276;10.530;2023-06-22T06:32:36;1189.47;;;999.90;;
11955;SDS011;6038;52.276;10.530;2023-06-22T06:35:03;1200.07;;;999.90;;
11955;SDS011;6038;52.276;10.530;2023-06-22T06:37:29;1192.88;;;999.90;;
11955;SDS011;6038;52.276;10.530;2023-06-22T06:39:55;1189.45;;;999.90;;
11955;SDS011;6038;52.276;10.530;2023-06-22T06:42:21;1196.60;;;999.90;;
11955;SDS011;6038;52.276;10.530;2023-06-22T06:44:49;1192.65;;;999.90;;
11955;SDS011;6038;52.276;10.530;2023-06-22T06:47:15;1196.07;;;999.90;;
11955;SDS011;6038;52.276;10.530;2023-06-22T06:49:42;1200.43;;;999.90;;
11955;SDS011;6038;52.276;10.530;2023-06-22T06:52:08;1194.10;;;999.90;;
11955;SDS011;6038;52.276;10.530;2023-06-22T06:54:34;1195.72;;;999.90;;
11955;SDS011;6038;52.276;10.530;2023-06-22T06:57:00;1207.57;;;999.90;;
11955;SDS011;6038;52.276;10.530;2023-06-22T06:59:28;1205.53;;;999.90;;
11955;SDS011;6038;52.276;10.530;2023-06-22T07:01:55;1207.75;;;999.90;;
11955;SDS011;6038;52.276;10.530;2023-06-22T07:04:21;1205.13;;;999.90;;
11955;SDS011;6038;52.276;10.530;2023-06-22T07:06:47;1208.95;;;999.90;;
11955;SDS011;6038;52.276;10.530;2023-06-22T07:09:13;1210.53;;;999.90;;
11955;SDS011;6038;52.276;10.530;2023-06-22T07:11:39;1209.82;;;999.90;;
11955;SDS011;6038;52.276;10.530;2023-06-22T07:14:05;1215.07;;;999.90;;
11955;SDS011;6038;52.276;10.530;2023-06-22T07:16:31;1219.55;;;999.90;;
11955;SDS011;6038;52.276;10.530;2023-06-22T07:18:57;1220.10;;;999.90;;
11955;SDS011;6038;52.276;10.530;2023-06-22T07:21:26;1216.78;;;999.90;;
11955;SDS011;6038;52.276;10.530;2023-06-22T07:23:52;1224.75;;;999.90;;
11955;SDS011;6038;52.276;10.530;2023-06-22T07:26:19;1222.00;;;999.90;;
11955;SDS011;6038;52.276;10.530;2023-06-22T07:28:45;1224.55;;;999.90;;
11955;SDS011;6038;52.276;10.530;2023-06-22T07:31:11;1227.80;;;999.90;;
11955;SDS011;6038;52.276;10.530;2023-06-22T07:33:37;1225.85;;;999.90;;
11955;SDS011;6038;52.276;10.530;2023-06-22T07:36:03;1225.85;;;999.90;;
11955;SDS011;6038;52.276;10.530;2023-06-22T07:38:32;1226.38;;;999.90;;
11955;SDS011;6038;52.276;10.530;2023-06-22T07:40:59;1230.80;;;999.90;;
11955;SDS011;6038;52.276;10.530;2023-06-22T07:43:25;1233.10;;;999.90;;
11955;SDS011;6038;52.276;10.530;2023-06-22T07:45:51;1238.57;;;999.90;;
11955;SDS011;6038;52.276;10.530;2023-06-22T07:48:19;1238.13;;;999.90;;
11955;SDS011;6038;52.276;10.530;2023-06-22T07:50:46;1241.43;;;999.90;;
11955;SDS011;6038;52.276;10.530;2023-06-22T07:53:12;1241.78;;;999.90;;
11955;SDS011;6038;52.276;10.530;2023-06-22T07:55:38;1246.05;;;999.90;;
11955;SDS011;6038;52.276;10.530;2023-06-22T07:58:03;1251.45;;;999.90;;
11955;SDS011;6038;52.276;10.530;2023-06-22T08:00:29;1253.43;;;999.90;;
11955;SDS011;6038;52.276;10.530;2023-06-22T08:02:55;1260.25;;;999.90;;
11955;SDS011;6038;52.276;10.530;2023-06-22T08:05:22;1263.10;;;999.90;;
11955;SDS011;6038;52.276;10.530;2023-06-22T08:07:48;1267.72;;;999.90;;
11955;SDS011;6038;52.276;10.530;2023-06-22T08:10:14;1270.05;;;999.90;;
11955;SDS011;6038;52.276;10.530;2023-06-22T08:12:40;1275.88;;;999.90;;
11955;SDS011;6038;52.276;10.530;2023-06-22T08:15:06;1271.60;;;999.90;;
11955;SDS011;6038;52.276;10.530;2023-06-22T08:17:33;1273.78;;;999.90;;
11955;SDS011;6038;52.276;10.530;2023-06-22T08:19:59;1280.20;;;999.90;;
11955;SDS011;6038;52.276;10.530;2023-06-22T08:22:25;1274.53;;;999.90;;
11955;SDS011;6038;52.276;10.530;2023-06-22T08:24:51;1276.80;;;999.90;;
11955;SDS011;6038;52.276;10.530;2023-06-22T08:27:17;1277.03;;;999.90;;
11955;SDS011;6038;52.276;10.530;2023-06-22T08:29:46;1281.88;;;999.90;;
11955;SDS011;6038;52.276;10.530;2023-06-22T08:32:12;1277.10;;;999.90;;
11955;SDS011;6038;52.276;10.530;2023-06-22T08:34:38;1278.47;;;999.90;;
11955;SDS011;6038;52.276;10.530;2023-06-22T08:37:07;1278.78;;;999.90;;
11955;SDS011;6038;52.276;10.530;2023-06-22T08:39:33;1275.28;;;999.90;;
11955;SDS011;6038;52.276;10.530;2023-06-22T08:41:59;1272.68;;;999.90;;
11955;SDS011;6038;52.276;10.530;2023-06-22T08:44:25;1275.28;;;999.90;;
11955;SDS011;6038;52.276;10.530;2023-06-22T08:46:51;1272.45;;;999.90;;
11955;SDS011;6038;52.276;10.530;2023-06-22T08:49:17;1275.65;;;999.90;;
11955;SDS011;6038;52.276;10.530;2023-06-22T08:51:42;1270.93;;;999.90;;
11955;SDS011;6038;52.276;10.530;2023-06-22T08:54:10;1277.03;;;999.90;;
11955;SDS011;6038;52.276;10.530;2023-06-22T08:56:36;1276.05;;;999.90;;
11955;SDS011;6038;52.276;10.530;2023-06-22T08:59:02;1284.63;;;999.90;;
11955;SDS011;6038;52.276;10.530;2023-06-22T09:01:28;1280.32;;;999.90;;
11955;SDS011;6038;52.276;10.530;2023-06-22T09:03:54;1277.90;;;999.90;;
11955;SDS011;6038;52.276;10.530;2023-06-22T09:06:22;1298.28;;;999.90;;
11955;SDS011;6038;52.276;10.530;2023-06-22T09:08:48;1294.47;;;999.90;;
11955;SDS011;6038;52.276;10.530;2023-06-22T09:11:14;1304.28;;;999.90;;
11955;SDS011;6038;52.276;10.530;2023-06-22T09:13:40;1304.20;;;999.90;;
11955;SDS011;6038;52.276;10.530;2023-06-22T09:16:07;1299.43;;;999.90;;
11955;SDS011;6038;52.276;10.530;2023-06-22T09:18:36;1295.45;;;999.90;;
11955;SDS011;6038;52.276;10.530;2023-06-22T09:21:02;1289.57;;;999.90;;
11955;SDS011;6038;52.276;10.530;2023-06-22T09:23:28;1289.43;;;999.90;;
11955;SDS011;6038;52.276;10.530;2023-06-22T09:25:54;1297.53;;;999.90;;
11955;SDS011;6038;52.276;10.530;2023-06-22T09:28:20;1295.07;;;999.90;;
11955;SDS011;6038;52.276;10.530;2023-06-22T09:30:46;1301.07;;;999.90;;
11955;SDS011;6038;52.276;10.530;2023-06-22T09:33:12;1306.15;;;999.90;;
11955;SDS011;6038;52.276;10.530;2023-06-22T09:35:38;1308.40;;;999.90;;
11955;SDS011;6038;52.276;10.530;2023-06-22T09:38:04;1320.65;;;999.90;;
11955;SDS011;6038;52.276;10.530;2023-06-22T09:40:30;1319.80;;;999.90;;
11955;SDS011;6038;52.276;10.530;2023-06-22T09:43:00;1328.93;;;999.90;;
11955;SDS011;6038;52.276;10.530;2023-06-22T09:45:26;1332.72;;;999.90;;
11955;SDS011;6038;52.276;10.530;2023-06-22T09:47:52;1338.00;;;999.90;;
11955;SDS011;6038;52.276;10.530;2023-06-22T09:50:18;1335.95;;;999.90;;
11955;SDS011;6038;52.276;10.530;2023-06-22T09:52:44;1343.93;;;999.90;;
11955;SDS011;6038;52.276;10.530;2023-06-22T09:55:15;1342.60;;;999.90;;
11955;SDS011;6038;52.276;10.530;2023-06-22T09:57:41;1343.75;;;999.90;;
11955;SDS011;6038;52.276;10.530;2023-06-22T10:00:07;1351.07;;;999.90;;
11955;SDS011;6038;52.276;10.530;2023-06-22T10:02:34;1345.50;;;999.90;;
11955;SDS011;6038;52.276;10.530;2023-06-22T10:05:00;1345.93;;;999.90;;
11955;SDS011;6038;52.276;10.530;2023-06-22T10:07:26;1353.85;;;999.90;;
11955;SDS011;6038;52.276;10.530;2023-06-22T10:09:52;1354.47;;;999.90;;
11955;SDS011;6038;52.276;10.530;2023-06-22T10:12:18;1351.15;;;999.90;;
11955;SDS011;6038;52.276;10.530;2023-06-22T10:14:44;1341.00;;;999.90;;
11955;SDS011;6038;52.276;10.530;2023-06-22T10:17:10;1341.40;;;999.90;;
11955;SDS011;6038;52.276;10.530;2023-06-22T10:19:36;1345.43;;;999.90;;
11955;SDS011;6038;52.276;10.530;2023-06-22T10:22:04;1348.68;;;999.90;;
11955;SDS011;6038;52.276;10.530;2023-06-22T10:24:30;1341.80;;;999.90;;
11955;SDS011;6038;52.276;10.530;2023-06-22T10:26:56;1345.22;;;999.90;;
11955;SDS011;6038;52.276;10.530;2023-06-22T10:29:22;1341.22;;;999.90;;
11955;SDS011;6038;52.276;10.530;2023-06-22T10:31:48;1342.35;;;999.90;;
11955;SDS011;6038;52.276;10.530;2023-06-22T10:34:14;1338.20;;;999.90;;
11955;SDS011;6038;52.276;10.530;2023-06-22T10:36:40;1337.30;;;999.90;;
11955;SDS011;6038;52.276;10.530;2023-06-22T10:39:06;1333.00;;;999.90;;
11955;SDS011;6038;52.276;10.530;2023-06-22T10:41:32;1331.32;;;999.90;;
11955;SDS011;6038;52.276;10.530;2023-06-22T10:43:58;1331.78;;;999.90;;
11955;SDS011;6038;52.276;10.530;2023-06-22T10:46:24;1330.30;;;999.90;;
11955;SDS011;6038;52.276;10.530;2023-06-22T10:48:51;1322.50;;;999.90;;
11955;SDS011;6038;52.276;10.530;2023-06-22T10:51:19;1336.70;;;999.90;;
11955;SDS011;6038;52.276;10.530;2023-06-22T10:53:45;1327.68;;;999.90;;
11955;SDS011;6038;52.276;10.530;2023-06-22T10:56:11;1329.68;;;999.90;;
11955;SDS011;6038;52.276;10.530;2023-06-22T10:58:37;1342.40;;;999.90;;
11955;SDS011;6038;52.276;10.530;2023-06-22T11:01:03;1350.47;;;999.90;;
11955;SDS011;6038;52.276;10.530;2023-06-22T11:03:29;1361.85;;;999.90;;
11955;SDS011;6038;52.276;10.530;2023-06-22T11:05:55;1368.88;;;999.90;;
11955;SDS011;6038;52.276;10.530;2023-06-22T11:08:21;1389.82;;;999.90;;
11955;SDS011;6038;52.276;10.530;2023-06-22T11:10:47;1398.10;;;999.90;;
11955;SDS011;6038;52.276;10.530;2023-06-22T11:13:13;1405.10;;;999.90;;
11955;SDS011;6038;52.276;10.530;2023-06-22T11:15:40;1411.70;;;999.90;;
11955;SDS011;6038;52.276;10.530;2023-06-22T11:18:06;1425.13;;;999.90;;
11955;SDS011;6038;52.276;10.530;2023-06-22T11:20:32;1428.03;;;999.90;;
11955;SDS011;6038;52.276;10.530;2023-06-22T11:22:59;1433.85;;;999.90;;
11955;SDS011;6038;52.276;10.530;2023-06-22T11:25:25;1444.50;;;999.90;;
11955;SDS011;6038;52.276;10.530;2023-06-22T11:27:51;1454.63;;;999.90;;
11955;SDS011;6038;52.276;10.530;2023-06-22T11:30:18;1460.35;;;999.90;;
11955;SDS011;6038;52.276;10.530;2023-06-22T11:32:44;1439.63;;;999.90;;
11955;SDS011;6038;52.276;10.530;2023-06-22T11:35:10;1442.00;;;999.90;;
11955;SDS011;6038;52.276;10.530;2023-06-22T11:37:36;1439.55;;;999.90;;
11955;SDS011;6038;52.276;10.530;2023-06-22T11:40:02;1434.13;;;999.90;;
11955;SDS011;6038;52.276;10.530;2023-06-22T11:42:30;1438.80;;;999.90;;
11955;SDS011;6038;52.276;10.530;2023-06-22T11:44:56;1431.75;;;999.90;;
11955;SDS011;6038;52.276;10.530;2023-06-22T11:47:22;1441.63;;;999.90;;
11955;SDS011;6038;52.276;10.530;2023-06-22T11:49:48;1445.07;;;999.90;;
11955;SDS011;6038;52.276;10.530;2023-06-22T11:52:14;1445.30;;;999.90;;
11955;SDS011;6038;52.276;10.530;2023-06-22T11:54:42;1445.82;;;999.90;;
11955;SDS011;6038;52.276;10.530;2023-06-22T11:57:08;1451.05;;;999.90;;
11955;SDS011;6038;52.276;10.530;2023-06-22T11:59:34;1441.45;;;999.90;;
11955;SDS011;6038;52.276;10.530;2023-06-22T12:02:00;1424.63;;;999.90;;
11955;SDS011;6038;52.276;10.530;2023-06-22T12:04:26;1424.22;;;999.90;;
11955;SDS011;6038;52.276;10.530;2023-06-22T12:06:52;1509.47;;;999.90;;
11955;SDS011;6038;52.276;10.530;2023-06-22T12:09:18;1499.22;;;999.90;;
11955;SDS011;6038;52.276;10.530;2023-06-22T12:11:44;1437.18;;;999.90;;
11955;SDS011;6038;52.276;10.530;2023-06-22T12:14:10;1451.80;;;999.90;;
11955;SDS011;6038;52.276;10.530;2023-06-22T12:16:36;1445.00;;;999.90;;
11955;SDS011;6038;52.276;10.530;2023-06-22T12:19:02;1477.07;;;999.90;;
11955;SDS011;6038;52.276;10.530;2023-06-22T12:21:28;1521.90;;;999.90;;
11955;SDS011;6038;52.276;10.530;2023-06-22T12:23:54;1562.85;;;999.90;;
11955;SDS011;6038;52.276;10.530;2023-06-22T12:26:21;1573.53;;;999.90;;
11955;SDS011;6038;52.276;10.530;2023-06-22T12:28:47;1560.13;;;999.90;;
11955;SDS011;6038;52.276;10.530;2023-06-22T12:31:13;1529.85;;;999.90;;
11955;SDS011;6038;52.276;10.530;2023-06-22T12:33:40;1489.22;;;999.90;;
11955;SDS011;6038;52.276;10.530;2023-06-22T12:36:06;1451.95;;;999.90;;
11955;SDS011;6038;52.276;10.530;2023-06-22T12:38:32;1456.80;;;999.90;;
11955;SDS011;6038;52.276;10.530;2023-06-22T12:40:58;1445.32;;;999.90;;
11955;SDS011;6038;52.276;10.530;2023-06-22T12:43:24;1447.88;;;999.90;;
11955;SDS011;6038;52.276;10.530;2023-06-22T12:45:50;1509.97;;;999.90;;
11955;SDS011;6038;52.276;10.530;2023-06-22T12:48:18;1590.70;;;999.90;;
11955;SDS011;6038;52.276;10.530;2023-06-22T12:50:44;1658.70;;;999.90;;
11955;SDS011;6038;52.276;10.530;2023-06-22T12:53:10;1671.68;;;999.90;;
11955;SDS011;6038;52.276;10.530;2023-06-22T12:55:36;1641.65;;;999.90;;
11955;SDS011;6038;52.276;10.530;2023-06-22T12:58:02;1728.35;;;999.90;;
11955;SDS011;6038;52.276;10.530;2023-06-22T13:00:28;1768.00;;;999.90;;
11955;SDS011;6038;52.276;10.530;2023-06-22T13:02:54;1783.43;;;999.90;;
11955;SDS011;6038;52.276;10.530;2023-06-22T13:05:20;1740.78;;;999.90;;
11955;SDS011;6038;52.276;10.530;2023-06-22T13:07:46;1743.97;;;999.90;;
11955;SDS011;6038;52.276;10.530;2023-06-22T13:10:12;1663.53;;;999.90;;
11955;SDS011;6038;52.276;10.530;2023-06-22T13:12:38;1569.68;;;999.90;;
11955;SDS011;6038;52.276;10.530;2023-06-22T13:15:04;1439.63;;;977.53;;
11955;SDS011;6038;52.276;10.530;2023-06-22T13:17:30;1383.90;;;989.35;;
11955;SDS011;6038;52.276;10.530;2023-06-22T13:19:56;1403.43;;;999.33;;
11955;SDS011;6038;52.276;10.530;2023-06-22T13:22:26;1258.63;;;880.90;;
11955;SDS011;6038;52.276;10.530;2023-06-22T13:24:55;1548.30;;;999.90;;
11955;SDS011;6038;52.276;10.530;2023-06-22T13:27:21;966.15;;;652.05;;
11955;SDS011;6038;52.276;10.530;2023-06-22T13:29:47;1263.45;;;883.28;;
11955;SDS011;6038;52.276;10.530;2023-06-22T13:32:13;1550.57;;;999.90;;
11955;SDS011;6038;52.276;10.530;2023-06-22T13:34:39;1573.45;;;999.90;;
11955;SDS011;6038;52.276;10.530;2023-06-22T13:37:05;805.00;;;528.80;;
11955;SDS011;6038;52.276;10.530;2023-06-22T13:39:31;466.35;;;264.30;;
11955;SDS011;6038;52.276;10.530;2023-06-22T13:41:57;377.15;;;254.40;;
11955;SDS011;6038;52.276;10.530;2023-06-22T13:44:23;1422.45;;;999.90;;
11955;SDS011;6038;52.276;10.530;2023-06-22T13:46:53;668.83;;;600.72;;